createdAt,value
2019-02-05T00:02:08.070Z,4.13
2019-02-05T00:04:35.573Z,4.00
2019-02-05T00:07:03.360Z,4.73
2019-02-05T00:09:30.943Z,4.53
2019-02-05T00:11:58.904Z,4.80
2019-02-05T00:14:26.363Z,4.10
2019-02-05T00:16:53.923Z,4.03
2019-02-05T00:19:21.405Z,4.47
2019-02-05T00:21:48.911Z,5.10
2019-02-05T00:24:17.204Z,4.27
2019-02-05T00:26:44.682Z,4.70
2019-02-05T00:29:12.180Z,4.20
2019-02-05T00:31:39.660Z,4.00
2019-02-05T00:34:07.141Z,4.70
2019-02-05T00:36:34.641Z,4.30
2019-02-05T00:39:02.146Z,4.50
2019-02-05T00:41:29.611Z,4.23
2019-02-05T00:43:57.085Z,5.07
2019-02-05T00:46:25.247Z,5.75
2019-02-05T00:48:52.886Z,4.67
2019-02-05T00:51:20.423Z,5.50
2019-02-05T00:53:48.074Z,5.03
2019-02-05T00:56:17.599Z,4.27
2019-02-05T00:58:43.192Z,4.93
2019-02-05T01:01:15.317Z,4.87
2019-02-05T01:03:40.140Z,4.60
2019-02-05T01:06:07.597Z,5.43
2019-02-05T01:08:35.272Z,4.57
2019-02-05T01:11:02.733Z,4.93
2019-02-05T01:13:30.237Z,5.10
2019-02-05T01:15:57.790Z,4.63
2019-02-05T01:18:25.286Z,5.47
2019-02-05T01:20:52.844Z,4.83
2019-02-05T01:23:20.394Z,4.80
2019-02-05T01:25:47.964Z,4.97
2019-02-05T01:28:15.415Z,5.03
2019-02-05T01:30:42.882Z,4.93
2019-02-05T01:33:10.466Z,4.55
2019-02-05T01:35:37.940Z,4.17
2019-02-05T01:38:05.431Z,4.60
2019-02-05T01:40:32.944Z,3.13
2019-02-05T01:43:00.452Z,5.17
2019-02-05T01:45:27.967Z,5.73
2019-02-05T01:47:55.590Z,4.50
2019-02-05T01:50:24.011Z,5.40
2019-02-05T01:52:51.540Z,4.40
2019-02-05T01:55:19.110Z,4.67
2019-02-05T01:57:47.462Z,5.70
2019-02-05T02:00:18.616Z,4.70
2019-02-05T02:02:46.107Z,4.85
2019-02-05T02:05:13.574Z,4.40
2019-02-05T02:07:41.107Z,4.82
2019-02-05T02:10:09.394Z,6.53
2019-02-05T02:12:36.924Z,3.97
2019-02-05T02:15:04.424Z,5.77
2019-02-05T02:17:31.935Z,5.57
2019-02-05T02:19:59.482Z,4.27
2019-02-05T02:22:26.941Z,5.17
2019-02-05T02:24:54.452Z,5.40
2019-02-05T02:27:21.888Z,5.78
2019-02-05T02:29:49.419Z,5.15
2019-02-05T02:32:16.867Z,6.00
2019-02-05T02:34:44.325Z,5.57
2019-02-05T02:37:11.772Z,5.10
2019-02-05T02:39:39.255Z,4.53
2019-02-05T02:42:06.739Z,5.70
2019-02-05T02:44:34.262Z,5.53
2019-02-05T02:47:01.726Z,5.67
2019-02-05T02:49:29.169Z,5.23
2019-02-05T02:51:56.621Z,5.77
2019-02-05T02:54:24.110Z,5.78
2019-02-05T02:57:04.221Z,6.20
2019-02-05T02:59:19.116Z,6.00
2019-02-05T03:01:46.596Z,6.37
2019-02-05T03:04:14.121Z,6.07
2019-02-05T03:06:41.588Z,5.80
2019-02-05T03:09:09.066Z,4.27
2019-02-05T03:11:36.563Z,6.13
2019-02-05T03:14:04.028Z,5.67
2019-02-05T03:16:31.525Z,5.10
2019-02-05T03:18:59.030Z,5.93
2019-02-05T03:21:27.063Z,5.33
2019-02-05T03:23:54.550Z,5.17
2019-02-05T03:26:22.045Z,6.30
2019-02-05T03:28:49.580Z,6.30
2019-02-05T03:31:17.052Z,6.10
2019-02-05T03:33:44.530Z,6.63
2019-02-05T03:36:12.032Z,6.00
2019-02-05T03:38:39.491Z,6.50
2019-02-05T03:41:06.970Z,5.77
2019-02-05T03:43:34.452Z,5.87
2019-02-05T03:46:01.961Z,5.90
2019-02-05T03:48:29.478Z,4.70
2019-02-05T03:50:59.538Z,5.67
2019-02-05T03:53:31.590Z,5.50
2019-02-05T03:56:02.051Z,5.80
2019-02-05T03:58:41.241Z,5.77
2019-02-05T04:01:11.124Z,5.40
2019-02-05T04:03:40.418Z,6.00
2019-02-05T04:06:33.831Z,5.97
2019-02-05T04:09:21.008Z,7.50
2019-02-05T04:12:05.990Z,6.07
2019-02-05T04:14:37.955Z,6.17
2019-02-05T04:17:23.890Z,5.93
2019-02-05T04:19:57.260Z,5.82
2019-02-05T04:22:46.408Z,5.65
2019-02-05T04:25:29.724Z,6.00
2019-02-05T04:27:58.963Z,5.85
2019-02-05T04:30:36.993Z,6.00
2019-02-05T04:36:20.579Z,7.62
2019-02-05T04:38:54.563Z,6.47
2019-02-05T04:41:37.744Z,5.67
2019-02-05T04:44:25.561Z,7.13
2019-02-05T04:47:26.660Z,6.80
2019-02-05T04:49:58.954Z,6.03
2019-02-05T04:52:41.143Z,6.72
2019-02-05T04:55:17.395Z,7.60
2019-02-05T04:57:57.999Z,8.40
2019-02-05T05:00:23.685Z,7.37
2019-02-05T05:03:01.896Z,6.05
2019-02-05T05:05:43.923Z,5.97
2019-02-05T05:08:17.858Z,8.80
2019-02-05T05:10:45.328Z,6.67
2019-02-05T05:13:13.577Z,4.62
2019-02-05T05:15:41.095Z,6.63
2019-02-05T05:18:08.611Z,7.85
2019-02-05T05:20:36.129Z,6.73
2019-02-05T05:23:03.587Z,7.30
2019-02-05T05:25:31.106Z,7.80
2019-02-05T05:28:09.769Z,7.47
2019-02-05T05:30:27.064Z,7.30
2019-02-05T05:32:54.565Z,10.75
2019-02-05T05:35:22.054Z,7.80
2019-02-05T05:37:49.520Z,7.32
2019-02-05T05:40:17.010Z,8.63
2019-02-05T05:42:44.496Z,8.10
2019-02-05T05:45:12.002Z,8.43
2019-02-05T05:47:39.554Z,8.07
2019-02-05T05:50:07.105Z,11.13
2019-02-05T05:52:36.292Z,8.30
2019-02-05T05:55:03.804Z,8.80
2019-02-05T05:57:31.334Z,8.68
2019-02-05T05:59:58.788Z,8.30
2019-02-05T06:02:26.276Z,8.97
2019-02-05T06:04:53.738Z,8.33
2019-02-05T06:07:21.294Z,9.35
2019-02-05T06:09:48.762Z,9.70
2019-02-05T06:12:16.270Z,9.80
2019-02-05T06:14:45.673Z,9.23
2019-02-05T06:17:13.285Z,9.17
2019-02-05T06:19:40.770Z,9.37
2019-02-05T06:22:08.252Z,10.33
2019-02-05T06:24:35.746Z,9.83
2019-02-05T06:27:03.222Z,9.40
2019-02-05T06:29:30.671Z,9.87
2019-02-05T06:31:58.144Z,8.90
2019-02-05T06:34:25.653Z,9.33
2019-02-05T06:36:53.095Z,9.90
2019-02-05T06:39:20.578Z,11.87
2019-02-05T06:41:48.062Z,10.48
2019-02-05T06:44:15.560Z,10.23
2019-02-05T06:46:43.136Z,9.63
2019-02-05T06:49:10.634Z,9.73
2019-02-05T06:51:38.091Z,9.23
2019-02-05T06:54:05.610Z,9.40
2019-02-05T06:56:33.076Z,8.50
2019-02-05T06:59:00.601Z,10.10
2019-02-05T07:01:28.146Z,8.35
2019-02-05T07:03:55.655Z,11.10
2019-02-05T07:06:23.157Z,10.53
2019-02-05T07:08:50.708Z,11.33
2019-02-05T07:11:19.718Z,9.60
2019-02-05T07:13:47.253Z,9.90
2019-02-05T07:16:14.773Z,10.95
2019-02-05T07:18:42.284Z,9.43
2019-02-05T07:21:09.861Z,13.10
2019-02-05T07:23:37.370Z,12.63
2019-02-05T07:26:05.003Z,12.50
2019-02-05T07:28:32.497Z,13.10
2019-02-05T07:31:00.015Z,13.80
2019-02-05T07:33:27.558Z,11.53
2019-02-05T07:35:55.216Z,15.57
2019-02-05T07:38:22.764Z,12.10
2019-02-05T07:40:50.328Z,14.03
2019-02-05T07:43:17.896Z,15.77
2019-02-05T07:45:46.445Z,16.10
2019-02-05T07:48:13.974Z,15.60
2019-02-05T07:50:41.502Z,15.57
2019-02-05T07:53:09.066Z,15.93
2019-02-05T07:55:36.631Z,18.23
2019-02-05T07:58:04.196Z,16.17
2019-02-05T08:00:31.731Z,20.93
2019-02-05T08:02:59.290Z,16.80
2019-02-05T08:05:27.680Z,21.47
2019-02-05T08:07:55.229Z,17.30
2019-02-05T08:10:22.814Z,23.10
2019-02-05T08:12:50.424Z,20.47
2019-02-05T08:15:19.860Z,21.03
2019-02-05T08:17:47.518Z,20.30
2019-02-05T08:20:15.732Z,18.23
2019-02-05T08:22:43.246Z,24.20
2019-02-05T08:25:11.678Z,17.43
2019-02-05T08:27:39.239Z,20.13
2019-02-05T08:30:06.808Z,19.60
2019-02-05T08:32:34.345Z,18.13
2019-02-05T08:35:01.909Z,22.77
2019-02-05T08:37:29.444Z,19.93
2019-02-05T08:39:57.061Z,22.58
2019-02-05T08:42:24.576Z,25.60
2019-02-05T08:44:52.098Z,25.27
2019-02-05T08:47:19.585Z,27.90
2019-02-05T08:49:47.653Z,22.87
2019-02-05T08:52:15.192Z,22.37
2019-02-05T08:54:42.773Z,21.73
2019-02-05T08:57:10.302Z,25.03
2019-02-05T08:59:37.838Z,21.70
2019-02-05T09:02:05.368Z,24.27
2019-02-05T09:04:32.882Z,23.77
2019-02-05T09:07:00.382Z,20.88
2019-02-05T09:09:28.026Z,23.27
2019-02-05T09:11:55.546Z,24.23
2019-02-05T09:14:23.078Z,20.23
2019-02-05T09:16:50.588Z,20.57
2019-02-05T09:19:18.246Z,21.60
2019-02-05T09:21:45.860Z,20.33
2019-02-05T09:24:15.275Z,20.03
2019-02-05T09:26:42.876Z,20.27
2019-02-05T09:29:10.403Z,23.03
2019-02-05T09:31:37.961Z,22.07
2019-02-05T09:34:05.470Z,21.43
2019-02-05T09:36:33.048Z,23.73
2019-02-05T09:39:00.544Z,20.58
2019-02-05T09:41:28.095Z,21.63
2019-02-05T09:43:55.700Z,20.90
2019-02-05T09:46:23.234Z,17.70
2019-02-05T09:48:50.751Z,21.63
2019-02-05T09:51:18.858Z,22.58
2019-02-05T09:53:46.365Z,16.83
2019-02-05T09:56:13.978Z,19.40
2019-02-05T09:58:41.494Z,19.73
2019-02-05T10:01:09.045Z,20.67
2019-02-05T10:03:36.586Z,19.03
2019-02-05T10:06:04.110Z,19.75
2019-02-05T10:08:31.650Z,20.00
2019-02-05T10:10:59.199Z,21.10
2019-02-05T10:13:26.792Z,18.00
2019-02-05T10:15:54.420Z,16.73
2019-02-05T10:18:21.878Z,13.43
2019-02-05T10:20:49.480Z,15.10
2019-02-05T10:23:17.000Z,14.70
2019-02-05T10:25:44.534Z,12.97
2019-02-05T10:28:12.098Z,14.90
2019-02-05T10:30:40.441Z,14.27
2019-02-05T10:33:07.955Z,16.03
2019-02-05T10:35:36.509Z,15.23
2019-02-05T10:38:04.127Z,17.07
2019-02-05T10:40:31.683Z,15.07
2019-02-05T10:42:59.219Z,15.05
2019-02-05T10:45:26.769Z,14.20
2019-02-05T10:47:54.274Z,21.00
2019-02-05T10:50:21.844Z,16.90
2019-02-05T10:52:50.022Z,13.93
2019-02-05T10:55:19.474Z,15.37
2019-02-05T10:57:48.100Z,14.77
2019-02-05T11:00:16.987Z,13.47
2019-02-05T11:02:44.530Z,13.07
2019-02-05T11:05:12.795Z,17.85
2019-02-05T11:07:40.357Z,15.90
2019-02-05T11:10:07.924Z,19.70
2019-02-05T11:12:35.450Z,14.30
2019-02-05T11:15:03.019Z,13.20
2019-02-05T11:17:30.564Z,13.87
2019-02-05T11:19:58.139Z,13.53
2019-02-05T11:22:25.655Z,13.07
2019-02-05T11:24:53.188Z,15.00
2019-02-05T11:27:20.706Z,14.77
2019-02-05T11:29:48.225Z,15.07
2019-02-05T11:32:15.745Z,16.27
2019-02-05T11:34:43.245Z,14.23
2019-02-05T11:37:10.757Z,16.23
2019-02-05T11:39:38.273Z,14.00
2019-02-05T11:42:05.793Z,13.67
2019-02-05T11:44:33.311Z,14.23
2019-02-05T11:47:03.813Z,16.53
2019-02-05T11:49:28.404Z,14.50
2019-02-05T11:51:55.932Z,14.97
2019-02-05T11:54:23.465Z,14.60
2019-02-05T11:56:51.570Z,16.70
2019-02-05T11:59:19.079Z,15.30
2019-02-05T12:01:46.594Z,14.53
2019-02-05T12:04:14.131Z,13.50
2019-02-05T12:06:41.705Z,13.90
2019-02-05T12:09:15.054Z,12.93
2019-02-05T12:11:42.595Z,14.77
2019-02-05T12:14:10.090Z,12.53
2019-02-05T12:16:38.519Z,12.83
2019-02-05T12:19:06.211Z,11.63
2019-02-05T12:21:33.754Z,14.10
2019-02-05T12:24:01.282Z,13.27
2019-02-05T12:26:28.862Z,13.23
2019-02-05T12:28:56.367Z,13.50
2019-02-05T12:31:23.898Z,16.25
2019-02-05T12:33:51.981Z,15.45
2019-02-05T12:36:19.584Z,18.90
2019-02-05T12:38:47.142Z,16.90
2019-02-05T12:41:14.761Z,16.03
2019-02-05T12:43:42.273Z,16.80
2019-02-05T12:46:09.879Z,15.87
2019-02-05T12:48:37.429Z,16.35
2019-02-05T12:51:05.011Z,16.60
2019-02-05T12:53:32.544Z,18.33
2019-02-05T12:56:00.051Z,16.77
2019-02-05T12:58:27.561Z,18.90
2019-02-05T13:00:59.052Z,18.73
2019-02-05T13:03:22.666Z,17.17
2019-02-05T13:05:50.195Z,18.17
2019-02-05T13:08:17.693Z,20.80
2019-02-05T13:10:46.101Z,18.97
2019-02-05T13:13:13.588Z,19.27
2019-02-05T13:15:41.090Z,20.17
2019-02-05T13:18:08.637Z,19.87
2019-02-05T13:20:36.141Z,19.07
2019-02-05T13:23:03.685Z,21.58
2019-02-05T13:25:31.270Z,18.93
2019-02-05T13:27:58.865Z,20.57
2019-02-05T13:30:29.864Z,18.83
2019-02-05T13:32:57.375Z,16.60
2019-02-05T13:35:26.413Z,18.37
2019-02-05T13:37:54.063Z,23.35
2019-02-05T13:40:21.575Z,18.27
2019-02-05T13:42:49.130Z,16.60
2019-02-05T13:45:16.617Z,18.57
2019-02-05T13:47:44.179Z,17.30
2019-02-05T13:50:11.695Z,17.37
2019-02-05T13:52:39.253Z,17.37
2019-02-05T13:55:06.810Z,19.17
2019-02-05T13:57:35.229Z,20.90
2019-02-05T14:00:02.806Z,21.12
2019-02-05T14:02:30.343Z,21.03
2019-02-05T14:04:57.832Z,20.27
2019-02-05T14:07:25.373Z,19.87
2019-02-05T14:09:52.892Z,20.73
2019-02-05T14:12:21.956Z,19.77
2019-02-05T14:14:47.972Z,20.77
2019-02-05T14:17:15.560Z,19.30
2019-02-05T14:19:44.710Z,18.70
2019-02-05T14:22:12.211Z,24.63
2019-02-05T14:24:40.399Z,26.97
2019-02-05T14:27:07.908Z,19.83
2019-02-05T14:29:35.441Z,20.27
2019-02-05T14:32:02.971Z,19.13
2019-02-05T14:34:30.479Z,21.27
2019-02-05T14:36:57.980Z,22.90
2019-02-05T14:39:25.480Z,18.03
2019-02-05T14:41:53.005Z,20.23
2019-02-05T14:44:20.569Z,20.75
2019-02-05T14:46:48.146Z,20.73
2019-02-05T14:49:15.639Z,18.27
2019-02-05T14:51:43.147Z,25.60
2019-02-05T14:54:10.772Z,21.83
2019-02-05T14:56:38.307Z,19.80
2019-02-05T14:59:05.827Z,22.10
2019-02-05T15:01:42.852Z,19.30
2019-02-05T15:04:00.944Z,21.50
2019-02-05T15:06:28.459Z,20.93
2019-02-05T15:08:55.953Z,21.03
2019-02-05T15:11:23.487Z,24.67
2019-02-05T15:13:51.002Z,19.47
2019-02-05T15:16:18.503Z,20.63
2019-02-05T15:18:46.009Z,19.87
2019-02-05T15:21:13.598Z,19.43
2019-02-05T15:23:41.151Z,21.13
2019-02-05T15:26:08.718Z,20.80
2019-02-05T15:28:36.210Z,22.27
2019-02-05T15:31:03.796Z,20.73
2019-02-05T15:33:32.723Z,21.00
2019-02-05T15:36:00.608Z,21.33
2019-02-05T15:38:28.214Z,18.50
2019-02-05T15:40:55.761Z,17.93
2019-02-05T15:43:23.317Z,17.27
2019-02-05T15:45:50.807Z,18.08
2019-02-05T15:48:18.341Z,17.73
2019-02-05T15:50:45.854Z,17.43
2019-02-05T15:53:13.412Z,20.43
2019-02-05T15:55:41.497Z,18.47
2019-02-05T15:58:09.002Z,15.95
2019-02-05T16:00:36.550Z,20.50
2019-02-05T16:03:04.033Z,18.75
2019-02-05T16:05:31.598Z,20.17
2019-02-05T16:07:59.119Z,19.10
2019-02-05T16:10:26.596Z,18.20
2019-02-05T16:12:54.137Z,18.40
2019-02-05T16:15:21.689Z,18.20
2019-02-05T16:17:49.239Z,16.43
2019-02-05T16:20:16.777Z,19.07
2019-02-05T16:22:44.277Z,18.40
2019-02-05T16:25:15.573Z,24.60
2019-02-05T16:27:43.128Z,20.33
2019-02-05T16:30:12.941Z,20.40
2019-02-05T16:32:39.882Z,21.00
2019-02-05T16:35:07.482Z,19.98
2019-02-05T16:37:35.032Z,19.37
2019-02-05T16:40:02.538Z,19.47
2019-02-05T16:42:30.080Z,21.30
2019-02-05T16:44:57.731Z,19.90
2019-02-05T16:47:25.216Z,19.73
2019-02-05T16:49:52.791Z,20.47
2019-02-05T16:52:20.337Z,22.20
2019-02-05T16:54:47.916Z,18.60
2019-02-05T16:57:15.437Z,18.07
2019-02-05T16:59:42.944Z,18.30
2019-02-05T17:02:10.470Z,21.93
2019-02-05T17:04:37.985Z,18.93
2019-02-05T17:07:05.530Z,17.30
2019-02-05T17:09:33.067Z,19.73
2019-02-05T17:12:00.573Z,18.40
2019-02-05T17:14:28.145Z,18.70
2019-02-05T17:16:55.683Z,20.30
2019-02-05T17:19:23.257Z,22.20
2019-02-05T17:21:50.781Z,16.77
2019-02-05T17:24:18.325Z,17.17
2019-02-05T17:26:45.880Z,19.33
2019-02-05T17:29:13.408Z,17.23
2019-02-05T17:31:40.927Z,19.03
2019-02-05T17:34:08.447Z,15.85
2019-02-05T17:36:36.050Z,16.02
2019-02-05T17:39:03.597Z,17.57
2019-02-05T17:41:31.166Z,17.97
2019-02-05T17:43:59.803Z,17.97
2019-02-05T17:46:28.331Z,19.27
2019-02-05T17:48:55.853Z,16.40
2019-02-05T17:51:23.385Z,20.47
2019-02-05T17:53:50.927Z,17.30
2019-02-05T17:56:18.467Z,31.97
2019-02-05T17:58:46.052Z,17.67
2019-02-05T18:01:13.554Z,24.42
2019-02-05T18:03:41.088Z,16.63
2019-02-05T18:06:08.690Z,15.93
2019-02-05T18:08:36.213Z,15.50
2019-02-05T18:11:03.694Z,14.50
2019-02-05T18:13:31.201Z,16.00
2019-02-05T18:15:58.886Z,15.33
2019-02-05T18:18:26.338Z,15.20
2019-02-05T18:20:53.962Z,16.63
2019-02-05T18:23:21.473Z,12.73
2019-02-05T18:25:49.048Z,13.37
2019-02-05T18:28:16.579Z,12.57
2019-02-05T18:30:44.146Z,12.70
2019-02-05T18:33:11.680Z,13.10
2019-02-05T18:35:39.214Z,12.57
2019-02-05T18:38:14.793Z,14.80
2019-02-05T18:40:42.346Z,11.85
2019-02-05T18:43:09.870Z,12.00
2019-02-05T18:45:37.424Z,12.02
2019-02-05T18:48:05.021Z,16.05
2019-02-05T18:50:32.575Z,13.00
2019-02-05T18:53:00.133Z,13.10
2019-02-05T18:55:30.221Z,13.00
2019-02-05T18:58:08.454Z,11.77
2019-02-05T19:00:28.628Z,11.37
2019-02-05T19:02:56.200Z,12.17
2019-02-05T19:05:23.775Z,11.37
2019-02-05T19:07:51.342Z,13.50
2019-02-05T19:10:19.471Z,10.90
2019-02-05T19:12:47.048Z,11.50
2019-02-05T19:15:17.304Z,10.37
2019-02-05T19:17:44.806Z,10.85
2019-02-05T19:20:12.376Z,11.13
2019-02-05T19:22:40.086Z,10.17
2019-02-05T19:25:07.767Z,11.40
2019-02-05T19:27:35.341Z,11.27
2019-02-05T19:30:02.945Z,10.47
2019-02-05T19:32:30.450Z,10.50
2019-02-05T19:34:57.952Z,10.20
2019-02-05T19:37:25.637Z,10.00
2019-02-05T19:39:53.270Z,9.93
2019-02-05T19:45:38.174Z,10.60
2019-02-05T19:48:05.756Z,11.60
2019-02-05T19:50:33.623Z,11.60
2019-02-05T19:53:01.233Z,13.47
2019-02-05T19:55:28.764Z,11.33
2019-02-05T19:57:56.404Z,11.63
2019-02-05T20:00:23.915Z,11.73
2019-02-05T20:02:51.490Z,11.43
2019-02-05T20:05:19.042Z,10.13
2019-02-05T20:07:47.258Z,11.70
2019-02-05T20:10:14.826Z,11.80
2019-02-05T20:12:42.414Z,12.27
2019-02-05T20:15:10.677Z,11.23
2019-02-05T20:17:38.219Z,11.10
2019-02-05T20:20:07.346Z,10.23
2019-02-05T20:22:34.850Z,11.40
2019-02-05T20:25:02.377Z,11.30
2019-02-05T20:27:29.939Z,10.13
2019-02-05T20:29:57.576Z,11.07
2019-02-05T20:32:28.142Z,11.83
2019-02-05T20:34:53.857Z,11.87
2019-02-05T20:37:21.391Z,10.77
2019-02-05T20:39:48.976Z,11.50
2019-02-05T20:42:16.503Z,11.13
2019-02-05T20:44:44.286Z,11.20
2019-02-05T20:47:11.830Z,10.60
2019-02-05T20:49:39.348Z,12.63
2019-02-05T20:52:06.858Z,14.90
2019-02-05T20:54:34.383Z,10.90
2019-02-05T20:57:01.917Z,14.47
2019-02-05T20:59:30.441Z,11.37
2019-02-05T21:01:56.988Z,10.57
2019-02-05T21:04:24.521Z,11.10
2019-02-05T21:06:52.048Z,11.47
2019-02-05T21:09:19.559Z,10.57
2019-02-05T21:11:47.143Z,11.33
2019-02-05T21:14:14.663Z,10.37
2019-02-05T21:16:42.200Z,10.33
2019-02-05T21:19:10.611Z,10.43
2019-02-05T21:21:38.240Z,11.40
2019-02-05T21:24:05.761Z,16.80
2019-02-05T21:26:33.378Z,13.80
2019-02-05T21:29:00.864Z,13.43
2019-02-05T21:31:28.476Z,10.83
2019-02-05T21:33:55.976Z,11.90
2019-02-05T21:36:23.556Z,11.97
2019-02-05T21:38:51.065Z,9.90
2019-02-05T21:41:18.606Z,10.07
2019-02-05T21:43:46.130Z,10.73
2019-02-05T21:46:13.656Z,9.95
2019-02-05T21:48:41.189Z,10.70
2019-02-05T21:51:08.769Z,10.10
2019-02-05T21:53:36.316Z,9.07
2019-02-05T21:56:03.828Z,9.50
2019-02-05T21:58:31.337Z,9.93
2019-02-05T22:00:58.851Z,12.07
2019-02-05T22:03:26.419Z,8.83
2019-02-05T22:05:53.991Z,9.40
2019-02-05T22:08:21.580Z,8.80
2019-02-05T22:10:49.109Z,8.70
2019-02-05T22:13:16.705Z,10.43
2019-02-05T22:15:44.230Z,9.37
2019-02-05T22:18:11.830Z,7.93
2019-02-05T22:20:39.309Z,9.43
2019-02-05T22:23:06.875Z,9.10
2019-02-05T22:25:34.397Z,9.30
2019-02-05T22:28:01.938Z,8.80
2019-02-05T22:30:30.179Z,8.52
2019-02-05T22:32:57.716Z,8.97
2019-02-05T22:35:25.317Z,12.10
2019-02-05T22:37:52.872Z,9.13
2019-02-05T22:40:20.391Z,7.90
2019-02-05T22:42:47.957Z,8.33
2019-02-05T22:45:15.483Z,8.73
2019-02-05T22:47:42.997Z,7.07
2019-02-05T22:50:12.392Z,7.32
2019-02-05T22:52:39.989Z,10.32
2019-02-05T22:55:07.491Z,7.67
2019-02-05T22:57:35.025Z,9.30
2019-02-05T23:00:02.542Z,7.83
2019-02-05T23:02:30.099Z,7.12
2019-02-05T23:04:59.192Z,7.30
2019-02-05T23:07:26.731Z,6.77
2019-02-05T23:09:54.250Z,6.55
2019-02-05T23:12:21.782Z,7.20
2019-02-05T23:14:50.258Z,6.27
2019-02-05T23:17:17.744Z,5.90
2019-02-05T23:19:45.249Z,6.20
2019-02-05T23:22:12.754Z,6.57
2019-02-05T23:24:40.221Z,6.10
2019-02-05T23:27:07.701Z,5.60
2019-02-05T23:29:35.187Z,5.60
2019-02-05T23:32:02.681Z,5.97
2019-02-05T23:34:30.165Z,5.10
2019-02-05T23:36:57.651Z,4.77
2019-02-05T23:39:25.130Z,5.60
2019-02-05T23:41:52.624Z,5.15
2019-02-05T23:44:20.132Z,5.17
2019-02-05T23:46:47.655Z,4.90
2019-02-05T23:49:15.138Z,4.70
2019-02-05T23:51:43.280Z,4.87
2019-02-05T23:54:10.796Z,4.67
2019-02-05T23:56:38.311Z,5.12
2019-02-05T23:59:05.792Z,5.17
